Time;durP1;ratioP1;P1;durP2;ratioP2;P2;SDS_P1;SDS_P2;PMS_P1;PMS_P2;Temp;Humidity;BMP_temperature;BMP_pressure;BME280_temperature;BME280_humidity;BME280_pressure;Samples;Min_cycle;Max_cycle;Signal;HPM_P1;HPM_P2
2022/01/11 00:00:57;;;;;;;34.95;17.75;;;-1.10;99.90;;;;;;5040362;28;20399;-79
2022/01/11 00:03:24;;;;;;;39.28;19.08;;;-1.20;99.90;;;;;;5038176;28;20049;-78
2022/01/11 00:06:20;;;;;;;38.92;19.65;;;-1.20;99.90;;;;;;5040222;28;20236;-78
2022/01/11 00:08:44;;;;;;;35.28;18.00;;;-1.10;99.90;;;;;;5039753;28;20566;-79
2022/01/11 00:11:15;;;;;;;37.95;18.08;;;-1.10;99.90;;;;;;5039956;28;20480;-78
2022/01/11 00:13:46;;;;;;;38.90;18.88;;;-1.20;99.90;;;;;;5040053;28;20031;-79
2022/01/11 00:16:15;;;;;;;39.13;19.25;;;-1.10;99.90;;;;;;5038447;28;20021;-78
2022/01/11 00:18:41;;;;;;;34.28;18.15;;;-1.10;99.90;;;;;;5039820;28;20111;-79
2022/01/11 00:21:07;;;;;;;38.17;18.83;;;-1.10;99.90;;;;;;5037732;28;20117;-79
2022/01/11 00:26:00;;;;;;;32.55;17.85;;;-1.10;99.90;;;;;;5039189;28;20348;-79
2022/01/11 00:28:30;;;;;;;38.78;19.33;;;-1.20;99.90;;;;;;5039651;28;20103;-79
2022/01/11 00:30:56;;;;;;;36.83;18.08;;;-1.10;99.90;;;;;;5039658;28;20044;-79
2022/01/11 00:33:31;;;;;;;40.08;19.55;;;-0.50;99.90;;;;;;5039564;28;20049;-79
2022/01/11 00:35:59;;;;;;;38.75;18.67;;;-1.10;99.90;;;;;;5039316;28;20100;-79
2022/01/11 00:38:36;;;;;;;40.40;18.35;;;-1.10;99.90;;;;;;5038056;28;20029;-78
2022/01/11 00:41:08;;;;;;;41.80;18.88;;;-1.00;99.90;;;;;;5039741;28;20526;-79
2022/01/11 00:43:35;;;;;;;39.20;18.85;;;-1.00;99.90;;;;;;5037973;28;20036;-78
2022/01/11 00:46:02;;;;;;;34.08;18.10;;;-1.10;99.90;;;;;;5038225;28;20126;-79
2022/01/11 00:48:28;;;;;;;36.75;17.48;;;-1.00;99.90;;;;;;5037162;28;20492;-78
2022/01/11 00:50:54;;;;;;;42.15;20.02;;;-1.10;99.90;;;;;;5039125;28;20318;-79
2022/01/11 00:53:22;;;;;;;33.53;17.63;;;-1.10;99.90;;;;;;5039347;28;20496;-79
2022/01/11 00:55:48;;;;;;;35.90;18.35;;;-1.10;99.90;;;;;;5039066;28;20020;-79
2022/01/11 00:58:15;;;;;;;36.20;17.90;;;-1.00;99.90;;;;;;5039261;28;20305;-78
2022/01/11 01:00:42;;;;;;;37.50;18.38;;;-1.00;99.90;;;;;;5038790;28;20025;-78
2022/01/11 01:03:08;;;;;;;40.08;18.05;;;-1.10;99.90;;;;;;5038335;28;20061;-78
2022/01/11 01:05:34;;;;;;;33.90;16.98;;;-1.10;99.90;;;;;;5038456;28;20081;-79
2022/01/11 01:08:00;;;;;;;37.15;18.23;;;-1.10;99.90;;;;;;5038590;28;20224;-78
2022/01/11 01:10:29;;;;;;;37.13;18.42;;;-1.10;99.90;;;;;;5038462;28;20013;-79
2022/01/11 01:12:57;;;;;;;34.67;16.90;;;-1.10;99.90;;;;;;5046658;28;20035;-78
2022/01/11 01:15:24;;;;;;;37.22;18.40;;;-1.10;99.90;;;;;;5051130;28;20256;-78
2022/01/11 01:17:51;;;;;;;35.03;18.52;;;-1.10;99.90;;;;;;5053449;28;20143;-79
2022/01/11 01:20:17;;;;;;;33.40;16.90;;;-1.00;99.90;;;;;;5050927;28;20021;-78
2022/01/11 01:22:43;;;;;;;36.65;17.40;;;-1.00;99.90;;;;;;5043642;28;20033;-78
2022/01/11 01:25:09;;;;;;;37.60;17.92;;;-1.00;99.90;;;;;;5040952;28;20028;-78
2022/01/11 01:27:37;;;;;;;31.92;16.88;;;-1.00;99.90;;;;;;5044745;28;20116;-78
2022/01/11 01:30:07;;;;;;;37.33;18.77;;;-0.90;99.90;;;;;;5039356;28;20385;-78
2022/01/11 01:32:36;;;;;;;34.88;17.85;;;-0.90;99.90;;;;;;5040497;28;20052;-78
2022/01/11 01:35:07;;;;;;;33.47;17.02;;;-1.00;99.90;;;;;;5039152;28;20032;-78
2022/01/11 01:37:33;;;;;;;34.90;17.65;;;-1.00;99.90;;;;;;5039161;28;20098;-77
2022/01/11 01:39:59;;;;;;;37.53;17.98;;;-1.00;99.90;;;;;;5038837;28;20025;-78
2022/01/11 01:42:30;;;;;;;35.20;18.17;;;-1.00;99.90;;;;;;5038076;28;20045;-78
2022/01/11 01:44:56;;;;;;;34.55;18.27;;;-1.00;99.90;;;;;;5037199;28;20025;-78
2022/01/11 01:47:24;;;;;;;39.65;19.35;;;-0.90;99.90;;;;;;5038476;28;20392;-79
2022/01/11 01:49:50;;;;;;;36.13;18.90;;;-1.00;99.90;;;;;;5036882;28;20260;-79
2022/01/11 01:52:16;;;;;;;37.35;18.48;;;-0.90;99.90;;;;;;5038210;28;20013;-79
2022/01/11 01:54:43;;;;;;;36.47;18.30;;;-1.00;99.90;;;;;;5036756;28;20099;-78
2022/01/11 01:57:09;;;;;;;36.67;19.33;;;-1.00;99.90;;;;;;5038352;28;20051;-79
2022/01/11 01:59:36;;;;;;;36.17;17.63;;;-1.00;99.90;;;;;;5038204;28;20087;-78
2022/01/11 02:02:07;;;;;;;35.70;18.08;;;-1.00;99.90;;;;;;5037847;28;20044;-78
2022/01/11 02:04:32;;;;;;;33.53;18.20;;;-0.90;99.90;;;;;;5037767;28;20017;-78
2022/01/11 02:06:58;;;;;;;37.67;18.65;;;-0.90;99.90;;;;;;5038167;28;20025;-79
2022/01/11 02:09:26;;;;;;;41.58;19.27;;;-0.90;99.90;;;;;;5037881;28;20025;-78
2022/01/11 02:11:52;;;;;;;37.17;18.60;;;-0.90;99.90;;;;;;5038427;28;20431;-79
2022/01/11 02:14:18;;;;;;;41.50;19.67;;;-0.90;99.90;;;;;;5037957;28;20241;-79
2022/01/11 02:16:44;;;;;;;36.33;19.15;;;-0.80;99.90;;;;;;5038131;28;20512;-78
2022/01/11 02:19:10;;;;;;;42.22;20.15;;;-0.80;99.90;;;;;;5042143;28;20017;-78
2022/01/11 02:21:36;;;;;;;39.22;19.42;;;-0.80;99.90;;;;;;5043911;28;20077;-79
2022/01/11 02:24:02;;;;;;;35.38;18.52;;;-0.80;99.90;;;;;;5044444;28;20040;-79
2022/01/11 02:26:28;;;;;;;37.78;18.98;;;-0.70;99.90;;;;;;5041108;28;20025;-79
2022/01/11 02:28:54;;;;;;;37.50;19.63;;;-0.80;99.90;;;;;;5039038;28;20622;-78
2022/01/11 02:31:20;;;;;;;37.22;18.45;;;-1.10;99.90;;;;;;5038231;28;20028;-79
2022/01/11 02:33:54;;;;;;;38.17;18.13;;;-0.80;99.90;;;;;;5038453;28;20292;-78
2022/01/11 02:36:25;;;;;;;40.03;19.63;;;-0.80;99.90;;;;;;5036237;28;20252;-78
2022/01/11 02:38:53;;;;;;;36.75;18.98;;;-0.80;99.90;;;;;;5037489;28;20309;-78
2022/01/11 02:41:19;;;;;;;39.90;19.65;;;0.00;99.90;;;;;;5037450;28;20442;-78
2022/01/11 02:43:47;;;;;;;36.60;18.48;;;-0.80;99.90;;;;;;5037422;28;20040;-79
2022/01/11 02:46:19;;;;;;;38.42;18.77;;;-0.90;99.90;;;;;;5037492;28;20223;-78
2022/01/11 02:48:46;;;;;;;42.75;19.58;;;-0.80;99.90;;;;;;5037415;28;20100;-78
2022/01/11 02:51:13;;;;;;;38.28;19.10;;;-0.80;99.90;;;;;;5036188;28;20033;-78
2022/01/11 02:53:46;;;;;;;41.90;21.27;;;-0.80;99.90;;;;;;5036153;28;20221;-79
2022/01/11 02:56:13;;;;;;;41.30;20.10;;;-0.80;99.90;;;;;;5037436;28;20120;-79
2022/01/11 02:58:39;;;;;;;42.08;19.60;;;-0.80;99.90;;;;;;5037349;28;20388;-78
2022/01/11 03:01:06;;;;;;;37.95;19.45;;;-0.70;99.90;;;;;;5038387;28;20028;-78
2022/01/11 03:03:33;;;;;;;33.50;17.75;;;-0.70;99.90;;;;;;5040847;28;20102;-78
2022/01/11 03:06:02;;;;;;;40.03;20.30;;;-0.70;99.90;;;;;;5040790;28;20021;-79
2022/01/11 03:08:30;;;;;;;34.08;17.80;;;-0.80;99.90;;;;;;5040851;28;20302;-78
2022/01/11 03:10:56;;;;;;;39.88;18.88;;;-0.70;99.90;;;;;;5041045;28;20472;-78
2022/01/11 03:13:22;;;;;;;38.00;19.65;;;-0.70;99.90;;;;;;5040673;28;20346;-78
2022/01/11 03:15:49;;;;;;;41.70;19.92;;;-0.70;99.90;;;;;;5040907;28;20464;-78
2022/01/11 03:18:15;;;;;;;40.70;19.77;;;-0.80;99.90;;;;;;5040945;28;20028;-78
2022/01/11 03:20:43;;;;;;;37.95;19.58;;;-0.80;99.90;;;;;;5041116;28;20021;-78
2022/01/11 03:23:10;;;;;;;39.40;21.00;;;-0.80;99.90;;;;;;5040294;28;20296;-78
2022/01/11 03:25:35;;;;;;;40.80;20.77;;;-0.80;99.90;;;;;;5041025;28;20728;-78
2022/01/11 03:28:02;;;;;;;42.25;20.45;;;-0.70;99.90;;;;;;5040995;28;20337;-78
2022/01/11 03:30:28;;;;;;;39.28;20.08;;;-0.70;99.90;;;;;;5040914;28;20689;-78
2022/01/11 03:32:54;;;;;;;37.75;19.05;;;-0.70;99.90;;;;;;5041032;28;20032;-78
2022/01/11 03:35:20;;;;;;;41.58;20.50;;;-0.70;99.90;;;;;;5038915;28;20528;-78
2022/01/11 03:37:47;;;;;;;38.83;20.00;;;0.10;99.90;;;;;;5040592;28;20056;-78
2022/01/11 03:40:22;;;;;;;34.85;19.08;;;-0.60;99.90;;;;;;5040554;28;20017;-79
2022/01/11 03:42:49;;;;;;;39.67;20.00;;;-0.60;99.90;;;;;;5038869;28;20531;-78
2022/01/11 03:45:16;;;;;;;39.20;19.50;;;-0.70;99.90;;;;;;5040485;28;20217;-78
2022/01/11 03:47:43;;;;;;;39.78;20.00;;;-0.60;99.90;;;;;;5040363;28;20091;-78
2022/01/11 03:50:11;;;;;;;39.65;19.98;;;-0.60;99.90;;;;;;5040567;28;20321;-78
2022/01/11 03:52:40;;;;;;;36.78;18.15;;;-0.60;99.90;;;;;;5040478;28;20523;-79
2022/01/11 03:55:12;;;;;;;42.83;19.92;;;-0.60;99.90;;;;;;5040318;28;20056;-78
2022/01/11 03:57:40;;;;;;;38.55;19.83;;;-0.60;99.90;;;;;;5039991;28;20039;-78
2022/01/11 04:00:25;;;;;;;38.35;19.83;;;-0.60;99.90;;;;;;5040403;28;20021;-77
2022/01/11 04:02:51;;;;;;;37.75;19.33;;;-0.60;99.90;;;;;;5039959;28;20049;-78
2022/01/11 04:05:17;;;;;;;39.13;19.40;;;-0.60;99.90;;;;;;5040194;28;20351;-77
2022/01/11 04:07:42;;;;;;;37.67;19.50;;;-0.60;99.90;;;;;;5040076;28;20021;-78
2022/01/11 04:10:11;;;;;;;38.97;19.48;;;-0.60;99.90;;;;;;5039821;28;20096;-78
2022/01/11 04:12:37;;;;;;;39.25;19.30;;;-0.60;99.90;;;;;;5039349;28;20036;-79
2022/01/11 04:15:03;;;;;;;39.72;19.75;;;-0.60;99.90;;;;;;5038402;28;20389;-78
2022/01/11 04:17:29;;;;;;;34.60;18.55;;;-0.60;99.90;;;;;;5040016;28;20017;-79
2022/01/11 04:19:55;;;;;;;39.08;18.33;;;-0.60;99.90;;;;;;5038615;28;20027;-78
2022/01/11 04:22:21;;;;;;;35.35;18.25;;;-0.60;99.90;;;;;;5039728;28;20032;-79
2022/01/11 04:24:46;;;;;;;34.65;17.50;;;-0.60;99.90;;;;;;5039298;28;20044;-77
2022/01/11 04:27:12;;;;;;;36.10;18.27;;;-0.60;99.90;;;;;;5039524;28;20025;-78
2022/01/11 04:29:38;;;;;;;30.15;15.93;;;-0.60;99.90;;;;;;5039819;28;20043;-78
2022/01/11 04:32:04;;;;;;;38.40;17.77;;;-0.60;99.90;;;;;;5039167;28;20109;-78
2022/01/11 04:34:30;;;;;;;35.65;18.05;;;0.30;99.90;;;;;;5039352;28;20233;-78
2022/01/11 04:36:56;;;;;;;36.28;17.30;;;-0.60;99.90;;;;;;5039231;28;20302;-79
2022/01/11 04:39:22;;;;;;;33.25;17.48;;;-0.60;99.90;;;;;;5039155;28;20516;-78
2022/01/11 04:41:49;;;;;;;30.85;16.05;;;-0.50;99.90;;;;;;5038946;28;20044;-78
2022/01/11 04:44:15;;;;;;;36.13;16.90;;;-2.10;99.90;;;;;;5039331;28;20045;-78
2022/01/11 04:46:42;;;;;;;31.60;17.38;;;-0.50;99.90;;;;;;5039205;28;20017;-78
2022/01/11 04:49:08;;;;;;;34.45;18.17;;;-0.60;99.90;;;;;;5038964;28;20613;-78
2022/01/11 04:51:35;;;;;;;34.92;17.92;;;0.30;99.90;;;;;;5038730;28;20261;-78
2022/01/11 04:54:01;;;;;;;34.03;18.08;;;-0.60;99.90;;;;;;5037451;28;20123;-78
2022/01/11 04:56:28;;;;;;;32.65;17.77;;;-0.60;99.90;;;;;;5038626;28;20045;-79
2022/01/11 04:58:54;;;;;;;36.75;18.63;;;-0.60;99.90;;;;;;5039160;28;20328;-79
2022/01/11 05:01:20;;;;;;;39.05;19.88;;;-0.60;99.90;;;;;;5038940;28;20029;-78
2022/01/11 05:03:46;;;;;;;38.13;19.40;;;-0.70;99.90;;;;;;5038830;28;20095;-78
2022/01/11 05:06:12;;;;;;;42.50;20.58;;;-0.70;99.90;;;;;;5038939;28;20017;-79
2022/01/11 05:08:37;;;;;;;33.90;18.40;;;-0.60;99.90;;;;;;5039413;28;20539;-79
2022/01/11 05:11:03;;;;;;;41.22;19.48;;;-0.60;99.90;;;;;;5042465;28;20250;-77
2022/01/11 05:13:31;;;;;;;37.38;19.27;;;-0.70;99.90;;;;;;5042142;28;20072;-79
2022/01/11 05:15:59;;;;;;;37.38;19.45;;;-0.70;99.90;;;;;;5042271;28;20021;-79
2022/01/11 05:18:25;;;;;;;36.83;18.83;;;-0.70;99.90;;;;;;5040150;28;20072;-78
2022/01/11 05:20:51;;;;;;;38.25;19.27;;;-0.70;99.90;;;;;;5038837;28;20293;-78
2022/01/11 05:23:17;;;;;;;42.08;19.10;;;-0.70;99.90;;;;;;5036587;28;20609;-79
2022/01/11 05:25:43;;;;;;;37.20;19.00;;;-0.60;99.90;;;;;;5038680;28;20021;-78
2022/01/11 05:28:09;;;;;;;35.17;18.17;;;-0.60;99.90;;;;;;5037181;28;20132;-78
2022/01/11 05:30:35;;;;;;;37.30;18.05;;;-0.40;99.90;;;;;;5039837;28;20023;-78
2022/01/11 05:33:01;;;;;;;36.13;18.38;;;-0.60;99.90;;;;;;5040234;28;20100;-78
2022/01/11 05:35:27;;;;;;;34.45;18.27;;;-0.60;99.90;;;;;;5039866;28;20025;-78
2022/01/11 05:37:53;;;;;;;39.38;18.98;;;-0.60;99.90;;;;;;5039728;28;20127;-78
2022/01/11 05:40:20;;;;;;;38.95;19.58;;;-0.50;99.90;;;;;;5039623;28;20014;-78
2022/01/11 05:42:48;;;;;;;37.88;19.33;;;-0.50;99.90;;;;;;5039742;28;20356;-78
2022/01/11 05:45:14;;;;;;;45.10;20.48;;;-0.50;99.90;;;;;;5039304;28;20048;-78
2022/01/11 05:47:40;;;;;;;41.70;21.00;;;-0.20;99.90;;;;;;5037456;28;20561;-78
2022/01/11 05:50:10;;;;;;;43.35;19.80;;;-0.40;99.90;;;;;;5038932;28;20355;-78
2022/01/11 05:52:38;;;;;;;39.25;19.90;;;-0.40;99.90;;;;;;5037059;28;20029;-79
2022/01/11 05:55:06;;;;;;;40.70;20.05;;;0.00;99.90;;;;;;5036449;28;20507;-78
2022/01/11 05:57:32;;;;;;;38.70;20.20;;;-0.40;99.90;;;;;;5038303;28;20029;-78
2022/01/11 05:59:58;;;;;;;47.17;20.60;;;-0.40;99.90;;;;;;5038313;28;20582;-78
2022/01/11 06:02:24;;;;;;;41.17;20.65;;;-0.40;99.90;;;;;;5037770;28;20064;-78
2022/01/11 06:04:49;;;;;;;45.50;21.35;;;-0.40;99.90;;;;;;5038033;28;20241;-78
2022/01/11 06:07:15;;;;;;;70.45;36.20;;;-0.30;99.90;;;;;;5038267;28;20256;-78
2022/01/11 06:09:41;;;;;;;62.05;32.38;;;-0.30;99.90;;;;;;5037677;28;20032;-78
2022/01/11 06:12:07;;;;;;;66.57;32.92;;;-0.30;99.90;;;;;;5037578;28;20537;-78
2022/01/11 06:14:33;;;;;;;86.53;39.85;;;-0.30;99.90;;;;;;5037954;28;20018;-78
2022/01/11 06:16:59;;;;;;;74.25;35.92;;;-0.40;99.90;;;;;;5038074;28;20024;-78
2022/01/11 06:19:26;;;;;;;48.25;24.40;;;-0.30;99.90;;;;;;5037797;28;20021;-78
2022/01/11 06:21:52;;;;;;;45.78;23.27;;;-0.20;99.90;;;;;;5038007;28;20017;-78
2022/01/11 06:24:19;;;;;;;44.72;22.80;;;-0.30;99.90;;;;;;5038052;28;20029;-78
2022/01/11 06:26:44;;;;;;;46.08;23.23;;;-0.20;99.90;;;;;;5037687;28;20108;-77
2022/01/11 06:29:10;;;;;;;117.93;57.40;;;-0.20;99.90;;;;;;5038047;28;20107;-78
2022/01/11 06:31:36;;;;;;;82.30;42.15;;;-0.20;99.90;;;;;;5037946;28;20079;-78
2022/01/11 06:34:03;;;;;;;67.50;37.95;;;-0.30;99.90;;;;;;5037739;28;20028;-78
2022/01/11 06:36:29;;;;;;;68.75;47.00;;;-0.20;99.90;;;;;;5042297;28;20031;-78
2022/01/11 06:38:55;;;;;;;56.83;34.70;;;-0.30;99.90;;;;;;5044867;28;20117;-78
2022/01/11 06:41:21;;;;;;;49.03;27.08;;;-0.20;99.90;;;;;;5046832;28;20032;-78
2022/01/11 06:43:47;;;;;;;46.33;25.40;;;-0.20;99.90;;;;;;5046570;28;20045;-78
2022/01/11 06:46:13;;;;;;;46.92;22.95;;;-0.20;99.90;;;;;;5043250;28;20413;-78
2022/01/11 06:48:39;;;;;;;46.35;23.25;;;-0.10;99.90;;;;;;5042999;28;20025;-78
2022/01/11 06:51:05;;;;;;;46.40;23.17;;;-0.10;99.90;;;;;;5042967;28;20672;-78
2022/01/11 06:53:32;;;;;;;43.92;22.33;;;-0.10;99.90;;;;;;5042323;28;20059;-78
2022/01/11 06:55:58;;;;;;;45.05;22.52;;;-0.10;99.90;;;;;;5040644;28;20040;-78
2022/01/11 06:58:25;;;;;;;47.72;25.10;;;-0.10;99.90;;;;;;5042157;28;20017;-78
2022/01/11 07:00:51;;;;;;;49.58;25.88;;;-0.10;99.90;;;;;;5040345;28;20094;-78
2022/01/11 07:03:16;;;;;;;52.35;24.77;;;-0.10;99.90;;;;;;5041130;28;20403;-79
2022/01/11 07:05:43;;;;;;;48.03;24.23;;;-0.10;99.90;;;;;;5041721;28;20052;-78
2022/01/11 07:08:09;;;;;;;47.38;23.75;;;0.00;99.90;;;;;;5040028;28;20111;-78
2022/01/11 07:10:35;;;;;;;47.72;24.05;;;0.00;99.90;;;;;;5041622;28;20101;-78
2022/01/11 07:13:02;;;;;;;45.97;23.15;;;0.00;99.90;;;;;;5041076;28;20115;-78
2022/01/11 07:15:31;;;;;;;45.78;21.92;;;0.10;99.90;;;;;;5041102;28;20040;-79
2022/01/11 07:17:58;;;;;;;46.60;23.23;;;0.00;99.90;;;;;;5041530;28;20021;-78
2022/01/11 07:20:24;;;;;;;47.25;23.15;;;0.10;99.90;;;;;;5041068;28;20029;-78
2022/01/11 07:22:51;;;;;;;54.35;25.77;;;0.10;99.90;;;;;;5039577;28;20383;-78
2022/01/11 07:25:17;;;;;;;82.68;36.50;;;0.10;99.90;;;;;;5040786;28;20021;-78
2022/01/11 07:27:43;;;;;;;86.30;39.00;;;0.10;99.90;;;;;;5038930;28;20021;-78
2022/01/11 07:30:09;;;;;;;78.60;35.70;;;0.10;99.90;;;;;;5040708;28;20655;-79
2022/01/11 07:32:35;;;;;;;97.97;46.38;;;0.10;99.90;;;;;;5040344;28;20217;-78
2022/01/11 07:35:03;;;;;;;90.65;43.75;;;0.10;99.90;;;;;;5040539;28;20021;-78
2022/01/11 07:37:29;;;;;;;72.43;36.50;;;0.10;99.90;;;;;;5038862;28;20036;-78
2022/01/11 07:39:55;;;;;;;58.58;29.10;;;0.10;99.90;;;;;;5040417;28;20766;-78
2022/01/11 07:42:22;;;;;;;54.35;27.88;;;0.10;99.90;;;;;;5038690;28;20082;-78
2022/01/11 07:44:51;;;;;;;51.47;26.90;;;0.20;99.90;;;;;;5039537;28;20044;-78
2022/01/11 07:47:18;;;;;;;56.80;28.17;;;0.20;99.90;;;;;;5039519;28;20203;-78
2022/01/11 07:49:44;;;;;;;51.35;26.85;;;0.10;99.90;;;;;;5040194;28;20021;-78
2022/01/11 07:52:10;;;;;;;51.72;25.98;;;0.10;99.90;;;;;;5040311;28;20101;-78
2022/01/11 07:54:36;;;;;;;51.38;27.45;;;0.20;99.90;;;;;;5039588;28;20314;-78
2022/01/11 07:57:02;;;;;;;49.20;26.25;;;0.20;99.90;;;;;;5039877;28;20040;-78
2022/01/11 07:59:28;;;;;;;38.47;21.15;;;0.30;99.90;;;;;;5039948;28;20032;-78
2022/01/11 08:01:58;;;;;;;39.17;21.55;;;0.30;99.90;;;;;;5038369;28;20198;-79
2022/01/11 08:04:23;;;;;;;45.53;22.77;;;0.40;99.80;;;;;;5038277;28;20033;-78
2022/01/11 08:06:49;;;;;;;50.47;25.52;;;0.40;99.50;;;;;;5039784;28;20020;-76
2022/01/11 08:09:15;;;;;;;51.13;24.98;;;0.40;99.50;;;;;;5039628;28;20737;-78
2022/01/11 08:11:42;;;;;;;62.38;28.92;;;0.40;99.30;;;;;;5037882;28;20029;-78
2022/01/11 08:14:08;;;;;;;57.15;27.42;;;0.40;99.20;;;;;;5039726;28;20025;-78
2022/01/11 08:16:33;;;;;;;62.22;30.83;;;0.40;99.20;;;;;;5039538;28;20413;-78
2022/01/11 08:19:02;;;;;;;51.90;26.80;;;0.40;99.50;;;;;;5039729;28;20021;-78
2022/01/11 08:21:28;;;;;;;47.17;24.02;;;0.40;99.50;;;;;;5039212;28;20538;-78
2022/01/11 08:23:54;;;;;;;51.40;26.60;;;0.40;99.20;;;;;;5039432;28;20037;-78
2022/01/11 08:26:20;;;;;;;54.65;27.10;;;0.40;99.40;;;;;;5037718;28;20036;-79
2022/01/11 08:28:45;;;;;;;53.20;26.38;;;0.30;99.60;;;;;;5039594;28;20163;-78
2022/01/11 08:31:11;;;;;;;50.22;25.88;;;3.50;99.90;;;;;;5039538;28;20663;-78
2022/01/11 08:33:40;;;;;;;46.50;25.90;;;0.30;99.20;;;;;;5039319;28;20036;-78
2022/01/11 08:36:07;;;;;;;47.30;25.02;;;0.20;99.40;;;;;;5039093;28;20306;-78
2022/01/11 08:38:35;;;;;;;53.30;26.00;;;-0.20;99.60;;;;;;5039069;28;20100;-78
2022/01/11 08:41:02;;;;;;;45.50;24.05;;;0.10;99.80;;;;;;5038815;28;20293;-78
2022/01/11 08:43:28;;;;;;;50.88;25.75;;;0.20;99.90;;;;;;5037664;28;20041;-78
2022/01/11 08:45:54;;;;;;;49.58;25.38;;;0.00;99.90;;;;;;5038936;28;20017;-77
2022/01/11 08:48:20;;;;;;;54.80;27.02;;;0.00;99.90;;;;;;5038705;28;20110;-78
2022/01/11 08:50:45;;;;;;;49.10;26.33;;;0.20;99.90;;;;;;5038511;28;20389;-78
2022/01/11 08:53:11;;;;;;;50.65;26.48;;;0.80;99.90;;;;;;5037173;28;20317;-78
2022/01/11 08:55:37;;;;;;;54.35;26.40;;;0.20;99.90;;;;;;5038958;28;20020;-78
2022/01/11 08:58:03;;;;;;;54.15;26.55;;;0.10;99.90;;;;;;5038764;28;20621;-78
2022/01/11 09:00:28;;;;;;;61.50;30.08;;;0.20;99.90;;;;;;5039116;28;20324;-78
2022/01/11 09:02:54;;;;;;;60.65;30.33;;;0.20;99.90;;;;;;5038741;28;20041;-78
2022/01/11 09:05:22;;;;;;;61.25;31.27;;;0.20;99.90;;;;;;5038776;28;20056;-77
2022/01/11 09:07:48;;;;;;;59.97;29.73;;;0.40;99.90;;;;;;5037219;28;20025;-78
2022/01/11 09:10:14;;;;;;;63.83;31.52;;;0.30;99.90;;;;;;5038989;28;20025;-78
2022/01/11 09:12:41;;;;;;;57.97;28.38;;;0.30;99.90;;;;;;5038386;28;20229;-78
2022/01/11 09:15:08;;;;;;;62.67;30.88;;;0.30;99.90;;;;;;5038903;28;20013;-78
2022/01/11 09:17:35;;;;;;;56.25;28.02;;;0.30;99.90;;;;;;5040085;28;20017;-78
2022/01/11 09:20:01;;;;;;;58.22;30.10;;;0.30;99.90;;;;;;5041180;28;20036;-78
2022/01/11 09:22:27;;;;;;;72.80;34.08;;;0.30;99.90;;;;;;5043872;28;20064;-78
2022/01/11 09:24:55;;;;;;;72.68;33.97;;;0.40;99.90;;;;;;5044401;28;20017;-78
2022/01/11 09:27:21;;;;;;;93.63;43.15;;;0.40;99.90;;;;;;5040921;28;20021;-78
2022/01/11 09:29:46;;;;;;;82.07;35.65;;;0.50;99.60;;;;;;5039490;28;20229;-77
2022/01/11 09:32:21;;;;;;;67.85;33.45;;;0.60;99.60;;;;;;5039373;28;20250;-79
2022/01/11 09:34:49;;;;;;;58.90;28.95;;;0.70;99.90;;;;;;5038395;28;20029;-77
2022/01/11 09:37:15;;;;;;;55.00;28.05;;;0.70;99.90;;;;;;5038090;28;20032;-78
2022/01/11 09:39:43;;;;;;;49.33;25.70;;;0.70;99.10;;;;;;5036090;28;20585;-78
2022/01/11 09:42:09;;;;;;;50.60;24.55;;;1.70;99.00;;;;;;5036389;28;20075;-78
2022/01/11 09:44:39;;;;;;;48.88;24.35;;;0.80;98.80;;;;;;5037587;28;20032;-78
2022/01/11 09:47:07;;;;;;;43.35;22.17;;;0.70;98.70;;;;;;5038198;28;20017;-78
2022/01/11 09:49:33;;;;;;;46.22;24.23;;;0.70;98.80;;;;;;5038261;28;20291;-78
2022/01/11 09:52:02;;;;;;;51.40;26.02;;;0.70;98.90;;;;;;5037790;28;20092;-78
2022/01/11 09:54:27;;;;;;;57.15;26.35;;;0.70;98.60;;;;;;5038216;28;20049;-78
2022/01/11 09:56:54;;;;;;;55.50;28.15;;;0.70;98.90;;;;;;5037931;28;20622;-78
2022/01/11 09:59:19;;;;;;;60.63;29.50;;;0.70;99.00;;;;;;5036438;28;20466;-78
2022/01/11 10:01:45;;;;;;;55.97;28.00;;;0.70;98.40;;;;;;5036111;28;20037;-78
2022/01/11 10:04:18;;;;;;;48.92;25.63;;;0.70;98.50;;;;;;5036221;28;20040;-77
2022/01/11 10:06:53;;;;;;;49.20;23.98;;;0.80;98.20;;;;;;5037755;28;20431;-78
2022/01/11 10:09:21;;;;;;;44.30;22.23;;;0.80;97.90;;;;;;5037090;28;20052;-78
2022/01/11 10:11:54;;;;;;;44.15;22.15;;;0.70;97.90;;;;;;5037786;28;20408;-77
2022/01/11 10:14:33;;;;;;;42.72;21.02;;;2.50;98.30;;;;;;5037881;28;20230;-77
2022/01/11 10:17:18;;;;;;;38.92;19.58;;;0.80;97.80;;;;;;5036059;28;20217;-78
2022/01/11 10:19:59;;;;;;;39.15;18.75;;;0.70;97.30;;;;;;5037819;28;20109;-78
2022/01/11 10:22:25;;;;;;;41.55;19.60;;;0.70;97.40;;;;;;5037944;28;20029;-80
2022/01/11 10:24:54;;;;;;;41.13;20.77;;;0.70;97.80;;;;;;5036740;28;20075;-77
2022/01/11 10:27:26;;;;;;;35.85;18.13;;;0.70;97.90;;;;;;5038135;28;20044;-78
2022/01/11 10:29:58;;;;;;;41.38;19.40;;;0.70;96.80;;;;;;5038506;28;20414;-77
2022/01/11 10:32:33;;;;;;;38.45;19.92;;;0.10;97.20;;;;;;5037554;28;20021;-78
2022/01/11 10:35:03;;;;;;;39.63;19.67;;;0.30;97.80;;;;;;5036512;28;20095;-77
2022/01/11 10:37:34;;;;;;;41.15;21.15;;;0.30;98.00;;;;;;5037886;28;20045;-78
2022/01/11 10:40:07;;;;;;;43.95;21.63;;;0.20;98.30;;;;;;5038019;28;20022;-78
2022/01/11 10:42:38;;;;;;;44.75;21.98;;;0.20;98.60;;;;;;5038276;28;20128;-77
2022/01/11 10:45:08;;;;;;;45.42;21.63;;;0.20;98.40;;;;;;5036885;28;20022;-78
2022/01/11 10:47:54;;;;;;;35.15;17.05;;;0.20;98.40;;;;;;5037960;28;20052;-78
2022/01/11 10:50:52;;;;;;;;;;;0.10;97.40;;;;;;5038595;28;20100;-78
2022/01/11 10:53:32;;;;;;;33.45;16.60;;;0.10;97.60;;;;;;5034218;28;20006;-78
2022/01/11 10:56:02;;;;;;;34.63;16.77;;;0.00;97.60;;;;;;5034521;28;20302;-78
2022/01/11 10:58:36;;;;;;;33.35;16.10;;;0.20;96.70;;;;;;5017586;28;20041;-78
2022/01/11 11:01:05;;;;;;;48.10;19.08;;;0.10;97.00;;;;;;5018062;28;20087;-77
2022/01/11 11:03:32;;;;;;;199.40;60.67;;;0.10;96.80;;;;;;5014637;28;20116;-78
2022/01/11 11:05:59;;;;;;;57.47;23.33;;;0.20;96.90;;;;;;5014465;28;20269;-78
2022/01/11 11:08:25;;;;;;;39.58;18.35;;;0.10;96.50;;;;;;4997710;28;20029;-78
2022/01/11 11:11:00;;;;;;;32.67;16.30;;;0.00;96.40;;;;;;5014781;28;20274;-80
2022/01/11 11:13:31;;;;;;;31.00;15.50;;;-0.10;96.50;;;;;;4998038;28;20297;-79
2022/01/11 11:16:26;;;;;;;522.70;173.02;;;-0.10;96.60;;;;;;4997703;28;20029;-77
2022/01/11 11:18:57;;;;;;;85.68;40.03;;;-0.60;96.50;;;;;;5000267;28;20430;-78
2022/01/11 11:21:37;;;;;;;63.88;31.25;;;-0.10;96.60;;;;;;5014357;28;20033;-78
2022/01/11 11:24:12;;;;;;;65.90;32.00;;;-0.10;96.50;;;;;;5017419;28;20666;-77
2022/01/11 11:26:41;;;;;;;39.67;22.17;;;0.00;96.40;;;;;;5000953;28;20068;-78
2022/01/11 11:29:09;;;;;;;30.05;17.08;;;0.00;95.80;;;;;;5008582;28;20448;-77
2022/01/11 11:31:37;;;;;;;23.83;12.57;;;0.10;95.10;;;;;;5001027;28;20290;-78
2022/01/11 11:34:08;;;;;;;24.77;12.95;;;0.10;94.30;;;;;;5001420;28;20014;-77
2022/01/11 11:36:35;;;;;;;31.33;18.88;;;0.10;94.30;;;;;;4999798;28;20168;-78
2022/01/11 11:39:17;;;;;;;53.92;29.13;;;0.10;94.30;;;;;;5000950;28;20223;-77
2022/01/11 11:41:48;;;;;;;37.45;19.67;;;0.00;94.30;;;;;;4999284;28;20033;-78
2022/01/11 11:44:26;;;;;;;32.92;17.20;;;0.10;94.10;;;;;;4999151;28;20538;-78
2022/01/11 11:46:55;;;;;;;31.48;16.88;;;0.10;94.70;;;;;;5001521;28;20033;-78
2022/01/11 11:49:45;;;;;;;23.73;12.02;;;0.10;95.20;;;;;;5001528;28;20256;-78
2022/01/11 11:52:42;;;;;;;27.15;13.60;;;0.00;94.80;;;;;;4999924;28;20045;-77
2022/01/11 11:55:15;;;;;;;28.52;14.40;;;-0.10;95.00;;;;;;5001849;28;20058;-79
2022/01/11 11:57:41;;;;;;;26.60;12.07;;;-0.10;95.60;;;;;;5002730;28;20251;-79
2022/01/11 12:00:14;;;;;;;28.02;12.45;;;-0.10;94.80;;;;;;5004432;28;20034;-78
2022/01/11 12:02:43;;;;;;;20.95;10.32;;;-0.20;95.10;;;;;;5032324;28;20045;-77
2022/01/11 12:05:28;;;;;;;24.15;11.25;;;-0.30;94.90;;;;;;5045163;28;20032;-78
2022/01/11 12:07:57;;;;;;;22.10;11.53;;;-0.30;95.50;;;;;;5043042;28;20028;-78
2022/01/11 12:10:52;;;;;;;23.80;11.48;;;-0.30;95.80;;;;;;5040878;28;20050;-78
2022/01/11 12:13:59;;;;;;;267.73;59.67;;;-0.30;95.50;;;;;;5039005;28;20416;-77
2022/01/11 12:16:25;;;;;;;59.72;19.23;;;-0.30;95.60;;;;;;5037264;28;20068;-78
2022/01/11 12:19:13;;;;;;;32.95;14.02;;;-0.30;95.90;;;;;;5037009;28;20140;-77
2022/01/11 12:21:44;;;;;;;27.63;12.50;;;-0.20;95.60;;;;;;5036515;28;20051;-77
2022/01/11 12:24:11;;;;;;;21.48;10.93;;;-0.20;95.30;;;;;;5036065;28;20049;-78
2022/01/11 12:26:37;;;;;;;22.90;11.38;;;-0.20;95.80;;;;;;5036311;28;20021;-77
2022/01/11 12:29:09;;;;;;;25.10;13.00;;;-0.20;95.60;;;;;;5036485;28;20053;-78
2022/01/11 12:31:41;;;;;;;24.13;12.98;;;-0.20;95.90;;;;;;5036447;28;20025;-78
2022/01/11 12:34:09;;;;;;;26.05;13.93;;;-0.30;96.00;;;;;;5036135;28;20086;-78
2022/01/11 12:37:01;;;;;;;31.40;15.63;;;-0.40;96.70;;;;;;5036442;28;20029;-78
2022/01/11 12:39:32;;;;;;;34.28;17.65;;;-0.40;96.80;;;;;;5019116;28;20036;-78